<?xml version="1.0" encoding="UTF-8" standalone="no" ?>
<gpx xmlns="http://www.topografix.com/GPX/1/1" xmlns:xsi="http://www.w3.org/2001/XMLSchema-instance" xsi:schemaLocation="http://www.topografix.com/GPX/1/1 http://www.topografix.com/GPX/1/1/gpx.xsd" version="1.1" creator="VisuGPX - https://www.visugpx.com">
  <metadata>
    <name>Norvège</name>
  </metadata>
  <trk>
    <name><![CDATA[Tour d'Europe: étape 034]]></name>
    <trkseg>
      <trkpt lat="62.47288" lon="6.8134">
        <ele>72.944351</ele>
        <time>2020-08-01T07:04:27.588Z</time>
      </trkpt>
      <trkpt lat="62.47422" lon="6.81678">
        <ele>78.194098</ele>
        <time>2020-08-01T07:07:32.605Z</time>
      </trkpt>
      <trkpt lat="62.47658" lon="6.81697">
        <ele>61.037752</ele>
        <time>2020-08-01T07:07:57.609Z</time>
      </trkpt>
      <trkpt lat="62.47853" lon="6.81731">
        <ele>51.190979</ele>
        <time>2020-08-01T07:09:05.578Z</time>
      </trkpt>
      <trkpt lat="62.47983" lon="6.81404">
        <ele>51.393274</ele>
        <time>2020-08-01T07:10:08.595Z</time>
      </trkpt>
      <trkpt lat="62.48193" lon="6.81397">
        <ele>56.012099</ele>
        <time>2020-08-01T07:10:58.600Z</time>
      </trkpt>
      <trkpt lat="62.48353" lon="6.81437">
        <ele>57.447522</ele>
        <time>2020-08-01T07:12:15.592Z</time>
      </trkpt>
      <trkpt lat="62.48361" lon="6.81025">
        <ele>71.627387</ele>
        <time>2020-08-01T07:14:29.591Z</time>
      </trkpt>
      <trkpt lat="62.48462" lon="6.81163">
        <ele>90.529204</ele>
        <time>2020-08-01T07:17:03.597Z</time>
      </trkpt>
      <trkpt lat="62.48535" lon="6.81311">
        <ele>105.854062</ele>
        <time>2020-08-01T07:19:22.602Z</time>
      </trkpt>
      <trkpt lat="62.48605" lon="6.81455">
        <ele>120.959709</ele>
        <time>2020-08-01T07:21:47.598Z</time>
      </trkpt>
      <trkpt lat="62.48698" lon="6.8112">
        <ele>136.74478</ele>
        <time>2020-08-01T07:24:19.589Z</time>
      </trkpt>
      <trkpt lat="62.4888" lon="6.81239">
        <ele>153.039586</ele>
        <time>2020-08-01T07:26:52.587Z</time>
      </trkpt>
      <trkpt lat="62.49056" lon="6.81404">
        <ele>166.347144</ele>
        <time>2020-08-01T07:29:12.620Z</time>
      </trkpt>
      <trkpt lat="62.49252" lon="6.81522">
        <ele>167.993095</ele>
        <time>2020-08-01T07:30:33.596Z</time>
      </trkpt>
      <trkpt lat="62.4945" lon="6.81648">
        <ele>166.61029</ele>
        <time>2020-08-01T07:31:35.592Z</time>
      </trkpt>
      <trkpt lat="62.49642" lon="6.81799">
        <ele>181.291228</ele>
        <time>2020-08-01T07:33:11.604Z</time>
      </trkpt>
      <trkpt lat="62.49821" lon="6.81936">
        <ele>201.85282</ele>
        <time>2020-08-01T07:36:16.595Z</time>
      </trkpt>
      <trkpt lat="62.50009" lon="6.82029">
        <ele>209.875157</ele>
        <time>2020-08-01T07:38:05.620Z</time>
      </trkpt>
      <trkpt lat="62.50158" lon="6.81848">
        <ele>199.6802</ele>
        <time>2020-08-01T07:38:30.593Z</time>
      </trkpt>
      <trkpt lat="62.49979" lon="6.81621">
        <ele>181.883844</ele>
        <time>2020-08-01T07:39:26.586Z</time>
      </trkpt>
      <trkpt lat="62.50006" lon="6.81138">
        <ele>163.262673</ele>
        <time>2020-08-01T07:39:49.602Z</time>
      </trkpt>
      <trkpt lat="62.49953" lon="6.80631">
        <ele>146.001762</ele>
        <time>2020-08-01T07:40:09.608Z</time>
      </trkpt>
      <trkpt lat="62.49905" lon="6.80154">
        <ele>128.595863</ele>
        <time>2020-08-01T07:40:31.613Z</time>
      </trkpt>
      <trkpt lat="62.49872" lon="6.79679">
        <ele>116.204761</ele>
        <time>2020-08-01T07:40:51.586Z</time>
      </trkpt>
      <trkpt lat="62.49884" lon="6.79212">
        <ele>119.485463</ele>
        <time>2020-08-01T07:41:24.588Z</time>
      </trkpt>
      <trkpt lat="62.49914" lon="6.7878">
        <ele>132.351042</ele>
        <time>2020-08-01T07:42:50.601Z</time>
      </trkpt>
      <trkpt lat="62.49862" lon="6.78219">
        <ele>121.965398</ele>
        <time>2020-08-01T07:43:32.605Z</time>
      </trkpt>
      <trkpt lat="62.49853" lon="6.77746">
        <ele>120.760437</ele>
        <time>2020-08-01T07:44:14.598Z</time>
      </trkpt>
      <trkpt lat="62.49873" lon="6.77249">
        <ele>125.546697</ele>
        <time>2020-08-01T07:44:54.601Z</time>
      </trkpt>
      <trkpt lat="62.49895" lon="6.76766">
        <ele>126.863835</ele>
        <time>2020-08-01T07:45:54.630Z</time>
      </trkpt>
      <trkpt lat="62.49916" lon="6.76296">
        <ele>130.51811</ele>
        <time>2020-08-01T07:47:05.589Z</time>
      </trkpt>
      <trkpt lat="62.4988" lon="6.75848">
        <ele>132.774657</ele>
        <time>2020-08-01T07:47:52.637Z</time>
      </trkpt>
      <trkpt lat="62.49915" lon="6.75384">
        <ele>120.578502</ele>
        <time>2020-08-01T07:48:33.589Z</time>
      </trkpt>
      <trkpt lat="62.49926" lon="6.74926">
        <ele>115.003915</ele>
        <time>2020-08-01T07:49:22.584Z</time>
      </trkpt>
      <trkpt lat="62.49922" lon="6.7439">
        <ele>108.048221</ele>
        <time>2020-08-01T07:50:02.605Z</time>
      </trkpt>
      <trkpt lat="62.49921" lon="6.73904">
        <ele>115.403091</ele>
        <time>2020-08-01T07:50:59.600Z</time>
      </trkpt>
      <trkpt lat="62.49865" lon="6.73445">
        <ele>119.171265</ele>
        <time>2020-08-01T07:51:41.598Z</time>
      </trkpt>
      <trkpt lat="62.49826" lon="6.72936">
        <ele>115.451353</ele>
        <time>2020-08-01T07:52:21.599Z</time>
      </trkpt>
      <trkpt lat="62.49784" lon="6.72397">
        <ele>96.40933</ele>
        <time>2020-08-01T07:52:46.595Z</time>
      </trkpt>
      <trkpt lat="62.49844" lon="6.71933">
        <ele>73.016394</ele>
        <time>2020-08-01T07:53:09.592Z</time>
      </trkpt>
      <trkpt lat="62.49919" lon="6.71506">
        <ele>76.128982</ele>
        <time>2020-08-01T07:54:20.600Z</time>
      </trkpt>
      <trkpt lat="62.50012" lon="6.71128">
        <ele>82.042223</ele>
        <time>2020-08-01T07:56:04.596Z</time>
      </trkpt>
      <trkpt lat="62.50115" lon="6.70722">
        <ele>82.224269</ele>
        <time>2020-08-01T07:57:10.611Z</time>
      </trkpt>
      <trkpt lat="62.5021" lon="6.70329">
        <ele>84.684943</ele>
        <time>2020-08-01T07:58:15.621Z</time>
      </trkpt>
      <trkpt lat="62.50303" lon="6.69932">
        <ele>90.228008</ele>
        <time>2020-08-01T07:59:31.603Z</time>
      </trkpt>
      <trkpt lat="62.50409" lon="6.69567">
        <ele>95.086908</ele>
        <time>2020-08-01T08:00:51.606Z</time>
      </trkpt>
      <trkpt lat="62.50489" lon="6.69118">
        <ele>95.750443</ele>
        <time>2020-08-01T08:01:50.604Z</time>
      </trkpt>
      <trkpt lat="62.50512" lon="6.6867">
        <ele>102.45799</ele>
        <time>2020-08-01T08:03:04.598Z</time>
      </trkpt>
      <trkpt lat="62.50542" lon="6.68232">
        <ele>105.341517</ele>
        <time>2020-08-01T08:04:23.617Z</time>
      </trkpt>
      <trkpt lat="62.50568" lon="6.67773">
        <ele>107.498421</ele>
        <time>2020-08-01T08:05:42.591Z</time>
      </trkpt>
      <trkpt lat="62.50575" lon="6.67315">
        <ele>107.128069</ele>
        <time>2020-08-01T08:06:35.626Z</time>
      </trkpt>
      <trkpt lat="62.50504" lon="6.66849">
        <ele>99.669697</ele>
        <time>2020-08-01T08:07:21.586Z</time>
      </trkpt>
      <trkpt lat="62.5048" lon="6.66351">
        <ele>92.114765</ele>
        <time>2020-08-01T08:07:59.613Z</time>
      </trkpt>
      <trkpt lat="62.50481" lon="6.65792">
        <ele>86.974251</ele>
        <time>2020-08-01T08:08:39.584Z</time>
      </trkpt>
      <trkpt lat="62.50422" lon="6.65269">
        <ele>80.299679</ele>
        <time>2020-08-01T08:09:19.603Z</time>
      </trkpt>
      <trkpt lat="62.50428" lon="6.64745">
        <ele>76.759465</ele>
        <time>2020-08-01T08:10:01.588Z</time>
      </trkpt>
      <trkpt lat="62.50442" lon="6.64268">
        <ele>75.942047</ele>
        <time>2020-08-01T08:10:42.608Z</time>
      </trkpt>
      <trkpt lat="62.50464" lon="6.63756">
        <ele>74.380719</ele>
        <time>2020-08-01T08:11:22.581Z</time>
      </trkpt>
      <trkpt lat="62.50456" lon="6.63281">
        <ele>71.679377</ele>
        <time>2020-08-01T08:12:02.600Z</time>
      </trkpt>
      <trkpt lat="62.50471" lon="6.62803">
        <ele>69.510431</ele>
        <time>2020-08-01T08:12:42.619Z</time>
      </trkpt>
      <trkpt lat="62.50428" lon="6.62342">
        <ele>73.757926</ele>
        <time>2020-08-01T08:13:38.611Z</time>
      </trkpt>
      <trkpt lat="62.50494" lon="6.62763">
        <ele>78.90401</ele>
        <time>2020-08-01T08:15:05.607Z</time>
      </trkpt>
      <trkpt lat="62.50592" lon="6.62805">
        <ele>87.906591</ele>
        <time>2020-08-01T08:17:31.598Z</time>
      </trkpt>
      <trkpt lat="62.50771" lon="6.62697">
        <ele>99.245395</ele>
        <time>2020-08-01T08:19:40.611Z</time>
      </trkpt>
      <trkpt lat="62.50934" lon="6.62436">
        <ele>100.895467</ele>
        <time>2020-08-01T08:20:52.588Z</time>
      </trkpt>
      <trkpt lat="62.51068" lon="6.62117">
        <ele>95.83234</ele>
        <time>2020-08-01T08:21:55.587Z</time>
      </trkpt>
      <trkpt lat="62.51125" lon="6.61691">
        <ele>104.165076</ele>
        <time>2020-08-01T08:23:18.586Z</time>
      </trkpt>
      <trkpt lat="62.51271" lon="6.61511">
        <ele>108.734022</ele>
        <time>2020-08-01T08:24:31.611Z</time>
      </trkpt>
      <trkpt lat="62.51431" lon="6.61845">
        <ele>100.836884</ele>
        <time>2020-08-01T08:25:08.618Z</time>
      </trkpt>
      <trkpt lat="62.51608" lon="6.62166">
        <ele>95.174404</ele>
        <time>2020-08-01T08:25:42.593Z</time>
      </trkpt>
      <trkpt lat="62.51742" lon="6.62508">
        <ele>94.458218</ele>
        <time>2020-08-01T08:26:43.588Z</time>
      </trkpt>
      <trkpt lat="62.51868" lon="6.62817">
        <ele>95.143389</ele>
        <time>2020-08-01T08:27:23.624Z</time>
      </trkpt>
      <trkpt lat="62.52044" lon="6.63076">
        <ele>95.495939</ele>
        <time>2020-08-01T08:28:20.609Z</time>
      </trkpt>
      <trkpt lat="62.5224" lon="6.63133">
        <ele>100.690544</ele>
        <time>2020-08-01T08:29:56.617Z</time>
      </trkpt>
      <trkpt lat="62.52444" lon="6.63041">
        <ele>103.760221</ele>
        <time>2020-08-01T08:31:17.598Z</time>
      </trkpt>
      <trkpt lat="62.52656" lon="6.63061">
        <ele>103.481707</ele>
        <time>2020-08-01T08:32:03.604Z</time>
      </trkpt>
      <trkpt lat="62.52866" lon="6.63112">
        <ele>111.856054</ele>
        <time>2020-08-01T08:32:43.601Z</time>
      </trkpt>
      <trkpt lat="62.53058" lon="6.63033">
        <ele>112.378089</ele>
        <time>2020-08-01T08:33:45.616Z</time>
      </trkpt>
      <trkpt lat="62.53118" lon="6.62531">
        <ele>93.659364</ele>
        <time>2020-08-01T08:34:25.637Z</time>
      </trkpt>
      <trkpt lat="62.53105" lon="6.62095">
        <ele>87.114995</ele>
        <time>2020-08-01T08:35:09.597Z</time>
      </trkpt>
      <trkpt lat="62.5317" lon="6.61663">
        <ele>94.923889</ele>
        <time>2020-08-01T08:35:59.603Z</time>
      </trkpt>
      <trkpt lat="62.53308" lon="6.61349">
        <ele>106.811012</ele>
        <time>2020-08-01T08:37:12.583Z</time>
      </trkpt>
      <trkpt lat="62.53443" lon="6.61031">
        <ele>111.506004</ele>
        <time>2020-08-01T08:38:17.598Z</time>
      </trkpt>
      <trkpt lat="62.53485" lon="6.60588">
        <ele>106.218338</ele>
        <time>2020-08-01T08:39:18.605Z</time>
      </trkpt>
      <trkpt lat="62.53468" lon="6.60102">
        <ele>94.608129</ele>
        <time>2020-08-01T08:39:40.612Z</time>
      </trkpt>
      <trkpt lat="62.5345" lon="6.5958">
        <ele>85.871564</ele>
        <time>2020-08-01T08:40:08.599Z</time>
      </trkpt>
      <trkpt lat="62.53389" lon="6.591">
        <ele>79.745911</ele>
        <time>2020-08-01T08:40:51.626Z</time>
      </trkpt>
      <trkpt lat="62.53487" lon="6.58745">
        <ele>79.66255</ele>
        <time>2020-08-01T08:41:50.599Z</time>
      </trkpt>
      <trkpt lat="62.53649" lon="6.58496">
        <ele>91.672916</ele>
        <time>2020-08-01T08:43:35.601Z</time>
      </trkpt>
      <trkpt lat="62.53826" lon="6.58279">
        <ele>91.70427</ele>
        <time>2020-08-01T08:44:52.610Z</time>
      </trkpt>
      <trkpt lat="62.54058" lon="6.58091">
        <ele>75.837967</ele>
        <time>2020-08-01T08:45:25.592Z</time>
      </trkpt>
      <trkpt lat="62.54274" lon="6.57898">
        <ele>72.485917</ele>
        <time>2020-08-01T08:45:52.604Z</time>
      </trkpt>
      <trkpt lat="62.54388" lon="6.57534">
        <ele>80.308179</ele>
        <time>2020-08-01T08:47:47.581Z</time>
      </trkpt>
      <trkpt lat="62.54443" lon="6.57129">
        <ele>87.592415</ele>
        <time>2020-08-01T08:49:31.617Z</time>
      </trkpt>
      <trkpt lat="62.54444" lon="6.56652">
        <ele>88.121827</ele>
        <time>2020-08-01T08:50:27.589Z</time>
      </trkpt>
      <trkpt lat="62.54441" lon="6.56177">
        <ele>88.025477</ele>
        <time>2020-08-01T09:01:38.603Z</time>
      </trkpt>
      <trkpt lat="62.54422" lon="6.55733">
        <ele>87.759581</ele>
        <time>2020-08-01T09:02:49.599Z</time>
      </trkpt>
      <trkpt lat="62.54411" lon="6.55257">
        <ele>83.438362</ele>
        <time>2020-08-01T09:03:50.600Z</time>
      </trkpt>
      <trkpt lat="62.54408" lon="6.54738">
        <ele>80.645113</ele>
        <time>2020-08-01T09:04:49.598Z</time>
      </trkpt>
      <trkpt lat="62.54377" lon="6.54239">
        <ele>86.987227</ele>
        <time>2020-08-01T09:05:44.602Z</time>
      </trkpt>
      <trkpt lat="62.54345" lon="6.53811">
        <ele>81.215935</ele>
        <time>2020-08-01T09:06:25.608Z</time>
      </trkpt>
      <trkpt lat="62.54328" lon="6.53386">
        <ele>79.027801</ele>
        <time>2020-08-01T09:07:12.604Z</time>
      </trkpt>
      <trkpt lat="62.54346" lon="6.52899">
        <ele>84.830518</ele>
        <time>2020-08-01T09:08:12.596Z</time>
      </trkpt>
      <trkpt lat="62.54362" lon="6.52445">
        <ele>86.86068</ele>
        <time>2020-08-01T09:09:17.597Z</time>
      </trkpt>
      <trkpt lat="62.54346" lon="6.51974">
        <ele>89.271745</ele>
        <time>2020-08-01T09:10:21.606Z</time>
      </trkpt>
      <trkpt lat="62.543" lon="6.51468">
        <ele>90.013591</ele>
        <time>2020-08-01T09:11:21.596Z</time>
      </trkpt>
      <trkpt lat="62.542" lon="6.51056">
        <ele>94.925242</ele>
        <time>2020-08-01T09:12:37.609Z</time>
      </trkpt>
      <trkpt lat="62.541" lon="6.50684">
        <ele>98.877648</ele>
        <time>2020-08-01T09:13:56.597Z</time>
      </trkpt>
      <trkpt lat="62.53962" lon="6.50194">
        <ele>90.40355</ele>
        <time>2020-08-01T09:14:43.586Z</time>
      </trkpt>
      <trkpt lat="62.53909" lon="6.49785">
        <ele>84.739634</ele>
        <time>2020-08-01T09:15:03.610Z</time>
      </trkpt>
      <trkpt lat="62.53857" lon="6.4932">
        <ele>89.663878</ele>
        <time>2020-08-01T09:15:47.605Z</time>
      </trkpt>
      <trkpt lat="62.53836" lon="6.48887">
        <ele>93.024961</ele>
        <time>2020-08-01T09:16:40.612Z</time>
      </trkpt>
      <trkpt lat="62.5383" lon="6.48403">
        <ele>99.84354</ele>
        <time>2020-08-01T09:18:44.597Z</time>
      </trkpt>
      <trkpt lat="62.53816" lon="6.47942">
        <ele>101.185071</ele>
        <time>2020-08-01T09:20:10.637Z</time>
      </trkpt>
      <trkpt lat="62.5371" lon="6.47437">
        <ele>83.303382</ele>
        <time>2020-08-01T09:20:43.616Z</time>
      </trkpt>
      <trkpt lat="62.53622" lon="6.46906">
        <ele>80.985123</ele>
        <time>2020-08-01T09:22:28.622Z</time>
      </trkpt>
      <trkpt lat="62.53562" lon="6.46498">
        <ele>89.677645</ele>
        <time>2020-08-01T09:24:14.601Z</time>
      </trkpt>
      <trkpt lat="62.53528" lon="6.46051">
        <ele>91.418654</ele>
        <time>2020-08-01T09:25:25.638Z</time>
      </trkpt>
      <trkpt lat="62.53466" lon="6.45622">
        <ele>89.922152</ele>
        <time>2020-08-01T09:26:06.588Z</time>
      </trkpt>
      <trkpt lat="62.53406" lon="6.45073">
        <ele>85.353196</ele>
        <time>2020-08-01T09:26:46.601Z</time>
      </trkpt>
      <trkpt lat="62.53393" lon="6.4465">
        <ele>89.161263</ele>
        <time>2020-08-01T09:27:54.588Z</time>
      </trkpt>
      <trkpt lat="62.53397" lon="6.44174">
        <ele>90.883506</ele>
        <time>2020-08-01T09:28:49.625Z</time>
      </trkpt>
      <trkpt lat="62.53429" lon="6.43735">
        <ele>94.017936</ele>
        <time>2020-08-01T09:29:57.596Z</time>
      </trkpt>
      <trkpt lat="62.53433" lon="6.43204">
        <ele>92.328003</ele>
        <time>2020-08-01T09:30:46.585Z</time>
      </trkpt>
      <trkpt lat="62.53435" lon="6.42753">
        <ele>94.267466</ele>
        <time>2020-08-01T09:31:36.594Z</time>
      </trkpt>
      <trkpt lat="62.53446" lon="6.42261">
        <ele>88.47515</ele>
        <time>2020-08-01T09:32:19.612Z</time>
      </trkpt>
      <trkpt lat="62.53492" lon="6.41732">
        <ele>85.690731</ele>
        <time>2020-08-01T09:33:05.598Z</time>
      </trkpt>
      <trkpt lat="62.53502" lon="6.41257">
        <ele>87.842692</ele>
        <time>2020-08-01T09:34:03.608Z</time>
      </trkpt>
      <trkpt lat="62.5351" lon="6.40735">
        <ele>79.669615</ele>
        <time>2020-08-01T09:34:44.600Z</time>
      </trkpt>
      <trkpt lat="62.53514" lon="6.40135">
        <ele>75.879093</ele>
        <time>2020-08-01T09:35:24.593Z</time>
      </trkpt>
      <trkpt lat="62.5353" lon="6.39675">
        <ele>83.139344</ele>
        <time>2020-08-01T09:36:12.603Z</time>
      </trkpt>
      <trkpt lat="62.53541" lon="6.39196">
        <ele>84.490149</ele>
        <time>2020-08-01T09:37:01.605Z</time>
      </trkpt>
      <trkpt lat="62.53554" lon="6.38721">
        <ele>83.465431</ele>
        <time>2020-08-01T09:37:51.629Z</time>
      </trkpt>
      <trkpt lat="62.53584" lon="6.38205">
        <ele>78.288835</ele>
        <time>2020-08-01T09:38:39.623Z</time>
      </trkpt>
      <trkpt lat="62.53556" lon="6.37741">
        <ele>79.668223</ele>
        <time>2020-08-01T09:39:47.672Z</time>
      </trkpt>
      <trkpt lat="62.53533" lon="6.37294">
        <ele>78.789599</ele>
        <time>2020-08-01T09:40:51.585Z</time>
      </trkpt>
      <trkpt lat="62.53516" lon="6.36846">
        <ele>61.415523</ele>
        <time>2020-08-01T09:41:12.601Z</time>
      </trkpt>
      <trkpt lat="62.53455" lon="6.36408">
        <ele>58.924862</ele>
        <time>2020-08-01T09:42:08.599Z</time>
      </trkpt>
      <trkpt lat="62.53483" lon="6.36006">
        <ele>67.612775</ele>
        <time>2020-08-01T09:43:52.579Z</time>
      </trkpt>
      <trkpt lat="62.53442" lon="6.35598">
        <ele>72.098709</ele>
        <time>2020-08-01T09:45:14.576Z</time>
      </trkpt>
      <trkpt lat="62.53403" lon="6.35149">
        <ele>73.921077</ele>
        <time>2020-08-01T09:46:14.578Z</time>
      </trkpt>
      <trkpt lat="62.53333" lon="6.34743">
        <ele>77.835893</ele>
        <time>2020-08-01T09:47:31.584Z</time>
      </trkpt>
      <trkpt lat="62.5328" lon="6.34317">
        <ele>84.863209</ele>
        <time>2020-08-01T09:49:08.570Z</time>
      </trkpt>
      <trkpt lat="62.53264" lon="6.3383">
        <ele>79.783012</ele>
        <time>2020-08-01T09:49:50.581Z</time>
      </trkpt>
      <trkpt lat="62.53259" lon="6.33325">
        <ele>72.676741</ele>
        <time>2020-08-01T09:50:15.607Z</time>
      </trkpt>
      <trkpt lat="62.53259" lon="6.32879">
        <ele>80.55575</ele>
        <time>2020-08-01T09:51:42.582Z</time>
      </trkpt>
      <trkpt lat="62.53224" lon="6.32359">
        <ele>77.046141</ele>
        <time>2020-08-01T09:54:35.591Z</time>
      </trkpt>
      <trkpt lat="62.53205" lon="6.31912">
        <ele>80.909582</ele>
        <time>2020-08-01T09:55:55.583Z</time>
      </trkpt>
      <trkpt lat="62.53182" lon="6.31456">
        <ele>83.332109</ele>
        <time>2020-08-01T09:57:10.579Z</time>
      </trkpt>
      <trkpt lat="62.53174" lon="6.31022">
        <ele>81.137482</ele>
        <time>2020-08-01T09:57:52.586Z</time>
      </trkpt>
      <trkpt lat="62.53149" lon="6.30568">
        <ele>87.513998</ele>
        <time>2020-08-01T09:58:58.584Z</time>
      </trkpt>
      <trkpt lat="62.53171" lon="6.30076">
        <ele>86.371142</ele>
        <time>2020-08-01T09:59:52.576Z</time>
      </trkpt>
      <trkpt lat="62.53203" lon="6.29623">
        <ele>89.669197</ele>
        <time>2020-08-01T10:00:54.574Z</time>
      </trkpt>
      <trkpt lat="62.53273" lon="6.29222">
        <ele>95.161786</ele>
        <time>2020-08-01T10:02:16.572Z</time>
      </trkpt>
      <trkpt lat="62.53237" lon="6.28766">
        <ele>94.457619</ele>
        <time>2020-08-01T10:03:26.578Z</time>
      </trkpt>
      <trkpt lat="62.53165" lon="6.28239">
        <ele>84.020697</ele>
        <time>2020-08-01T10:04:12.572Z</time>
      </trkpt>
      <trkpt lat="62.53129" lon="6.27758">
        <ele>84.541578</ele>
        <time>2020-08-01T10:05:12.584Z</time>
      </trkpt>
      <trkpt lat="62.53253" lon="6.27403">
        <ele>82.671672</ele>
        <time>2020-08-01T10:06:08.579Z</time>
      </trkpt>
      <trkpt lat="62.53476" lon="6.27288">
        <ele>67.775276</ele>
        <time>2020-08-01T10:06:35.581Z</time>
      </trkpt>
      <trkpt lat="62.53633" lon="6.2758">
        <ele>55.473055</ele>
        <time>2020-08-01T10:06:57.577Z</time>
      </trkpt>
      <trkpt lat="62.538" lon="6.27948">
        <ele>48.940826</ele>
        <time>2020-08-01T10:07:34.595Z</time>
      </trkpt>
      <trkpt lat="62.53921" lon="6.28282">
        <ele>52.218295</ele>
        <time>2020-08-01T10:08:16.575Z</time>
      </trkpt>
      <trkpt lat="62.54083" lon="6.28642">
        <ele>55.030733</ele>
        <time>2020-08-01T10:09:13.571Z</time>
      </trkpt>
      <trkpt lat="62.54192" lon="6.29035">
        <ele>59.530308</ele>
        <time>2020-08-01T10:10:29.576Z</time>
      </trkpt>
      <trkpt lat="62.54386" lon="6.28981">
        <ele>59.750941</ele>
        <time>2020-08-01T10:11:32.579Z</time>
      </trkpt>
      <trkpt lat="62.54531" lon="6.28665">
        <ele>64.672027</ele>
        <time>2020-08-01T10:12:59.573Z</time>
      </trkpt>
      <trkpt lat="62.54618" lon="6.28268">
        <ele>67.602569</ele>
        <time>2020-08-01T10:13:54.576Z</time>
      </trkpt>
      <trkpt lat="62.54736" lon="6.27924">
        <ele>68.807542</ele>
        <time>2020-08-01T10:14:57.617Z</time>
      </trkpt>
      <trkpt lat="62.54952" lon="6.2792">
        <ele>62.665821</ele>
        <time>2020-08-01T10:15:43.610Z</time>
      </trkpt>
      <trkpt lat="62.55161" lon="6.27788">
        <ele>60.756835</ele>
        <time>2020-08-01T10:16:23.583Z</time>
      </trkpt>
      <trkpt lat="62.55352" lon="6.27562">
        <ele>58.712437</ele>
        <time>2020-08-01T10:17:03.572Z</time>
      </trkpt>
      <trkpt lat="62.55564" lon="6.27389">
        <ele>53.284198</ele>
        <time>2020-08-01T10:17:49.574Z</time>
      </trkpt>
      <trkpt lat="62.55772" lon="6.27362">
        <ele>59.316687</ele>
        <time>2020-08-01T10:19:08.587Z</time>
      </trkpt>
      <trkpt lat="62.55936" lon="6.27602">
        <ele>65.778831</ele>
        <time>2020-08-01T10:20:43.571Z</time>
      </trkpt>
      <trkpt lat="62.56092" lon="6.27952">
        <ele>63.08722</ele>
        <time>2020-08-01T10:21:32.577Z</time>
      </trkpt>
      <trkpt lat="62.5629" lon="6.27888">
        <ele>64.824789</ele>
        <time>2020-08-01T10:22:41.576Z</time>
      </trkpt>
      <trkpt lat="62.5648" lon="6.27667">
        <ele>64.924634</ele>
        <time>2020-08-01T10:23:46.582Z</time>
      </trkpt>
      <trkpt lat="62.56682" lon="6.27566">
        <ele>64.485575</ele>
        <time>2020-08-01T10:24:30.589Z</time>
      </trkpt>
      <trkpt lat="62.56868" lon="6.27445">
        <ele>60.617651</ele>
        <time>2020-08-01T10:25:16.614Z</time>
      </trkpt>
      <trkpt lat="62.57086" lon="6.27382">
        <ele>58.201783</ele>
        <time>2020-08-01T10:26:06.595Z</time>
      </trkpt>
      <trkpt lat="62.57306" lon="6.27334">
        <ele>57.065836</ele>
        <time>2020-08-01T10:26:50.618Z</time>
      </trkpt>
      <trkpt lat="62.57546" lon="6.27285">
        <ele>57.545718</ele>
        <time>2020-08-01T10:27:45.580Z</time>
      </trkpt>
      <trkpt lat="62.57766" lon="6.27132">
        <ele>59.524103</ele>
        <time>2020-08-01T10:28:39.602Z</time>
      </trkpt>
      <trkpt lat="62.57924" lon="6.2689">
        <ele>59.978806</ele>
        <time>2020-08-01T10:29:19.582Z</time>
      </trkpt>
      <trkpt lat="62.58095" lon="6.26625">
        <ele>59.031382</ele>
        <time>2020-08-01T10:30:05.588Z</time>
      </trkpt>
      <trkpt lat="62.58314" lon="6.26506">
        <ele>56.676466</ele>
        <time>2020-08-01T10:30:58.585Z</time>
      </trkpt>
      <trkpt lat="62.58518" lon="6.26705">
        <ele>53.445766</ele>
        <time>2020-08-01T10:31:48.607Z</time>
      </trkpt>
      <trkpt lat="62.58588" lon="6.2717">
        <ele>50.710707</ele>
        <time>2020-08-01T10:32:43.608Z</time>
      </trkpt>
      <trkpt lat="62.58615" lon="6.2764">
        <ele>52.075196</ele>
        <time>2020-08-01T10:33:40.675Z</time>
      </trkpt>
      <trkpt lat="62.58761" lon="6.27939">
        <ele>57.97279</ele>
        <time>2020-08-01T10:34:50.586Z</time>
      </trkpt>
      <trkpt lat="62.5895" lon="6.28138">
        <ele>60.877005</ele>
        <time>2020-08-01T10:35:50.604Z</time>
      </trkpt>
      <trkpt lat="62.59154" lon="6.28362">
        <ele>60.299046</ele>
        <time>2020-08-01T10:36:50.601Z</time>
      </trkpt>
      <trkpt lat="62.59284" lon="6.28747">
        <ele>58.134123</ele>
        <time>2020-08-01T10:37:50.600Z</time>
      </trkpt>
      <trkpt lat="62.59392" lon="6.29198">
        <ele>59.078954</ele>
        <time>2020-08-01T10:38:50.615Z</time>
      </trkpt>
      <trkpt lat="62.59467" lon="6.29635">
        <ele>61.157845</ele>
        <time>2020-08-01T10:39:55.623Z</time>
      </trkpt>
      <trkpt lat="62.59613" lon="6.29965">
        <ele>59.655138</ele>
        <time>2020-08-01T10:40:44.619Z</time>
      </trkpt>
      <trkpt lat="62.59777" lon="6.30213">
        <ele>58.917819</ele>
        <time>2020-08-01T10:41:44.629Z</time>
      </trkpt>
      <trkpt lat="62.59836" lon="6.30677">
        <ele>58.455388</ele>
        <time>2020-08-01T10:42:42.584Z</time>
      </trkpt>
      <trkpt lat="62.5987" lon="6.31123">
        <ele>58.896124</ele>
        <time>2020-08-01T10:43:42.598Z</time>
      </trkpt>
      <trkpt lat="62.60014" lon="6.31459">
        <ele>58.792526</ele>
        <time>2020-08-01T10:44:33.599Z</time>
      </trkpt>
      <trkpt lat="62.60178" lon="6.31796">
        <ele>58.415653</ele>
        <time>2020-08-01T10:45:33.609Z</time>
      </trkpt>
      <trkpt lat="62.60378" lon="6.32021">
        <ele>61.227135</ele>
        <time>2020-08-01T10:46:29.586Z</time>
      </trkpt>
      <trkpt lat="62.60551" lon="6.32269">
        <ele>59.544418</ele>
        <time>2020-08-01T10:47:31.601Z</time>
      </trkpt>
      <trkpt lat="62.60644" lon="6.32684">
        <ele>59.100674</ele>
        <time>2020-08-01T10:48:32.586Z</time>
      </trkpt>
      <trkpt lat="62.60819" lon="6.32934">
        <ele>59.918445</ele>
        <time>2020-08-01T10:49:26.606Z</time>
      </trkpt>
      <trkpt lat="62.60971" lon="6.33295">
        <ele>59.476778</ele>
        <time>2020-08-01T10:50:26.587Z</time>
      </trkpt>
      <trkpt lat="62.61114" lon="6.3366">
        <ele>59.988718</ele>
        <time>2020-08-01T10:51:29.628Z</time>
      </trkpt>
      <trkpt lat="62.61023" lon="6.34096">
        <ele>59.929029</ele>
        <time>2020-08-01T10:52:20.626Z</time>
      </trkpt>
      <trkpt lat="62.60892" lon="6.345">
        <ele>61.108517</ele>
        <time>2020-08-01T10:53:19.599Z</time>
      </trkpt>
      <trkpt lat="62.60736" lon="6.34851">
        <ele>59.960586</ele>
        <time>2020-08-01T10:54:19.634Z</time>
      </trkpt>
      <trkpt lat="62.60703" lon="6.35314">
        <ele>60.637996</ele>
        <time>2020-08-01T10:55:17.599Z</time>
      </trkpt>
      <trkpt lat="62.60683" lon="6.35775">
        <ele>62.970014</ele>
        <time>2020-08-01T10:56:19.647Z</time>
      </trkpt>
      <trkpt lat="62.60577" lon="6.36198">
        <ele>61.156676</ele>
        <time>2020-08-01T10:57:23.599Z</time>
      </trkpt>
      <trkpt lat="62.6046" lon="6.3662">
        <ele>62.327916</ele>
        <time>2020-08-01T10:58:29.621Z</time>
      </trkpt>
      <trkpt lat="62.60424" lon="6.37051">
        <ele>64.926936</ele>
        <time>2020-08-01T10:59:51.622Z</time>
      </trkpt>
      <trkpt lat="62.60432" lon="6.3749">
        <ele>65.55471</ele>
        <time>2020-08-01T11:00:51.598Z</time>
      </trkpt>
      <trkpt lat="62.60429" lon="6.37954">
        <ele>65.416973</ele>
        <time>2020-08-01T11:01:47.600Z</time>
      </trkpt>
      <trkpt lat="62.60345" lon="6.38358">
        <ele>65.209144</ele>
        <time>2020-08-01T11:02:38.613Z</time>
      </trkpt>
      <trkpt lat="62.60357" lon="6.38786">
        <ele>71.823474</ele>
        <time>2020-08-01T11:04:01.590Z</time>
      </trkpt>
      <trkpt lat="62.60426" lon="6.39187">
        <ele>73.268801</ele>
        <time>2020-08-01T11:05:20.609Z</time>
      </trkpt>
      <trkpt lat="62.60491" lon="6.396">
        <ele>72.472298</ele>
        <time>2020-08-01T11:06:21.606Z</time>
      </trkpt>
      <trkpt lat="62.6061" lon="6.40039">
        <ele>66.142655</ele>
        <time>2020-08-01T11:07:08.588Z</time>
      </trkpt>
      <trkpt lat="62.60676" lon="6.40494">
        <ele>69.608611</ele>
        <time>2020-08-01T11:10:18.632Z</time>
      </trkpt>
      <trkpt lat="62.60706" lon="6.40916">
        <ele>75.661194</ele>
        <time>2020-08-01T11:12:07.590Z</time>
      </trkpt>
      <trkpt lat="62.60763" lon="6.4137">
        <ele>76.078248</ele>
        <time>2020-08-01T11:13:00.585Z</time>
      </trkpt>
      <trkpt lat="62.60857" lon="6.41901">
        <ele>65.26605</ele>
        <time>2020-08-01T11:13:31.586Z</time>
      </trkpt>
      <trkpt lat="62.60943" lon="6.42366">
        <ele>58.01109</ele>
        <time>2020-08-01T11:14:12.604Z</time>
      </trkpt>
      <trkpt lat="62.61007" lon="6.42792">
        <ele>55.043305</ele>
        <time>2020-08-01T11:14:55.602Z</time>
      </trkpt>
      <trkpt lat="62.60979" lon="6.43218">
        <ele>65.078314</ele>
        <time>2020-08-01T11:16:28.580Z</time>
      </trkpt>
      <trkpt lat="62.60963" lon="6.43641">
        <ele>75.418977</ele>
        <time>2020-08-01T11:18:33.585Z</time>
      </trkpt>
      <trkpt lat="62.60784" lon="6.43897">
        <ele>70.683037</ele>
        <time>2020-08-01T11:19:28.636Z</time>
      </trkpt>
      <trkpt lat="62.60569" lon="6.44026">
        <ele>57.512125</ele>
        <time>2020-08-01T11:20:40.624Z</time>
      </trkpt>
      <trkpt lat="62.60617" lon="6.44122">
        <ele>59.725158</ele>
        <time>2020-08-01T11:21:43.596Z</time>
      </trkpt>
      <trkpt lat="62.60741" lon="6.44513">
        <ele>61.500147</ele>
        <time>2020-08-01T11:22:29.593Z</time>
      </trkpt>
      <trkpt lat="62.60786" lon="6.44866">
        <ele>50.502411</ele>
        <time>2020-08-01T11:55:08.932Z</time>
      </trkpt>
      <trkpt lat="62.63928" lon="6.52641">
        <ele>50.667331</ele>
        <time>2020-08-01T12:16:59.524Z</time>
      </trkpt>
      <trkpt lat="62.64003" lon="6.52392">
        <ele>48.618317</ele>
        <time>2020-08-01T12:20:46.547Z</time>
      </trkpt>
      <trkpt lat="62.6408" lon="6.52876">
        <ele>55.015704</ele>
        <time>2020-08-01T12:21:44.556Z</time>
      </trkpt>
      <trkpt lat="62.6417" lon="6.53299">
        <ele>56.284753</ele>
        <time>2020-08-01T12:22:44.551Z</time>
      </trkpt>
      <trkpt lat="62.64288" lon="6.53698">
        <ele>55.621183</ele>
        <time>2020-08-01T12:23:43.563Z</time>
      </trkpt>
      <trkpt lat="62.64394" lon="6.54107">
        <ele>52.865676</ele>
        <time>2020-08-01T12:24:25.541Z</time>
      </trkpt>
      <trkpt lat="62.64492" lon="6.54524">
        <ele>51.832858</ele>
        <time>2020-08-01T12:25:11.523Z</time>
      </trkpt>
      <trkpt lat="62.64579" lon="6.54941">
        <ele>51.148393</ele>
        <time>2020-08-01T12:25:56.517Z</time>
      </trkpt>
      <trkpt lat="62.64722" lon="6.55315">
        <ele>54.175747</ele>
        <time>2020-08-01T12:26:53.539Z</time>
      </trkpt>
      <trkpt lat="62.64835" lon="6.55701">
        <ele>53.742934</ele>
        <time>2020-08-01T12:27:36.550Z</time>
      </trkpt>
      <trkpt lat="62.64991" lon="6.55947">
        <ele>48.549563</ele>
        <time>2020-08-01T12:28:16.572Z</time>
      </trkpt>
      <trkpt lat="62.65215" lon="6.55931">
        <ele>52.389279</ele>
        <time>2020-08-01T12:29:05.564Z</time>
      </trkpt>
      <trkpt lat="62.65325" lon="6.56266">
        <ele>54.534012</ele>
        <time>2020-08-01T12:29:48.543Z</time>
      </trkpt>
      <trkpt lat="62.65224" lon="6.56694">
        <ele>53.551858</ele>
        <time>2020-08-01T12:30:37.567Z</time>
      </trkpt>
      <trkpt lat="62.65197" lon="6.57158">
        <ele>53.925</ele>
        <time>2020-08-01T12:31:24.530Z</time>
      </trkpt>
      <trkpt lat="62.65344" lon="6.57526">
        <ele>54.76525</ele>
        <time>2020-08-01T12:32:13.549Z</time>
      </trkpt>
      <trkpt lat="62.65455" lon="6.57885">
        <ele>62.201581</ele>
        <time>2020-08-01T12:33:49.519Z</time>
      </trkpt>
      <trkpt lat="62.65517" lon="6.58295">
        <ele>67.463738</ele>
        <time>2020-08-01T12:35:09.521Z</time>
      </trkpt>
      <trkpt lat="62.65579" lon="6.58689">
        <ele>72.024741</ele>
        <time>2020-08-01T12:36:31.525Z</time>
      </trkpt>
      <trkpt lat="62.65673" lon="6.59081">
        <ele>74.225957</ele>
        <time>2020-08-01T12:37:56.539Z</time>
      </trkpt>
      <trkpt lat="62.65825" lon="6.59436">
        <ele>74.472129</ele>
        <time>2020-08-01T12:38:35.526Z</time>
      </trkpt>
      <trkpt lat="62.66028" lon="6.59665">
        <ele>66.683593</ele>
        <time>2020-08-01T12:39:15.566Z</time>
      </trkpt>
      <trkpt lat="62.6593" lon="6.60061">
        <ele>67.035226</ele>
        <time>2020-08-01T12:40:05.528Z</time>
      </trkpt>
      <trkpt lat="62.65781" lon="6.60403">
        <ele>70.766357</ele>
        <time>2020-08-01T12:40:51.527Z</time>
      </trkpt>
      <trkpt lat="62.65653" lon="6.60726">
        <ele>79.322238</ele>
        <time>2020-08-01T12:42:58.522Z</time>
      </trkpt>
      <trkpt lat="62.65723" lon="6.61229">
        <ele>77.616988</ele>
        <time>2020-08-01T12:43:48.587Z</time>
      </trkpt>
      <trkpt lat="62.65711" lon="6.61716">
        <ele>75.480037</ele>
        <time>2020-08-01T12:44:27.528Z</time>
      </trkpt>
      <trkpt lat="62.65653" lon="6.62156">
        <ele>72.889654</ele>
        <time>2020-08-01T12:45:14.544Z</time>
      </trkpt>
      <trkpt lat="62.65677" lon="6.62627">
        <ele>71.377229</ele>
        <time>2020-08-01T12:46:02.528Z</time>
      </trkpt>
      <trkpt lat="62.65649" lon="6.63094">
        <ele>75.715275</ele>
        <time>2020-08-01T12:46:52.558Z</time>
      </trkpt>
      <trkpt lat="62.65647" lon="6.63518">
        <ele>78.948725</ele>
        <time>2020-08-01T12:48:04.524Z</time>
      </trkpt>
      <trkpt lat="62.65706" lon="6.63936">
        <ele>84.571932</ele>
        <time>2020-08-01T12:49:17.539Z</time>
      </trkpt>
      <trkpt lat="62.65804" lon="6.64324">
        <ele>88.747825</ele>
        <time>2020-08-01T12:50:28.541Z</time>
      </trkpt>
      <trkpt lat="62.65901" lon="6.64731">
        <ele>90.214915</ele>
        <time>2020-08-01T12:51:29.537Z</time>
      </trkpt>
      <trkpt lat="62.65995" lon="6.65139">
        <ele>95.89979</ele>
        <time>2020-08-01T12:52:39.568Z</time>
      </trkpt>
      <trkpt lat="62.66076" lon="6.65546">
        <ele>100.861856</ele>
        <time>2020-08-01T12:54:11.597Z</time>
      </trkpt>
      <trkpt lat="62.66162" lon="6.66039">
        <ele>88.912678</ele>
        <time>2020-08-01T12:54:46.525Z</time>
      </trkpt>
      <trkpt lat="62.66266" lon="6.6648">
        <ele>70.143796</ele>
        <time>2020-08-01T12:55:06.552Z</time>
      </trkpt>
      <trkpt lat="62.66472" lon="6.66377">
        <ele>55.660235</ele>
        <time>2020-08-01T12:55:30.562Z</time>
      </trkpt>
      <trkpt lat="62.66647" lon="6.66188">
        <ele>67.221364</ele>
        <time>2020-08-01T12:57:23.574Z</time>
      </trkpt>
      <trkpt lat="62.66825" lon="6.66019">
        <ele>78.740976</ele>
        <time>2020-08-01T13:01:25.559Z</time>
      </trkpt>
      <trkpt lat="62.6701" lon="6.65776">
        <ele>78.177509</ele>
        <time>2020-08-01T13:15:40.531Z</time>
      </trkpt>
      <trkpt lat="62.6708" lon="6.6543">
        <ele>69.830874</ele>
        <time>2020-08-01T13:16:14.561Z</time>
      </trkpt>
      <trkpt lat="62.67182" lon="6.65894">
        <ele>63.247494</ele>
        <time>2020-08-01T13:16:43.544Z</time>
      </trkpt>
      <trkpt lat="62.67271" lon="6.66423">
        <ele>59.39328</ele>
        <time>2020-08-01T13:17:31.530Z</time>
      </trkpt>
      <trkpt lat="62.67283" lon="6.66908">
        <ele>49.762127</ele>
        <time>2020-08-01T13:17:55.555Z</time>
      </trkpt>
      <trkpt lat="62.67395" lon="6.67365">
        <ele>49.085856</ele>
        <time>2020-08-01T13:18:43.528Z</time>
      </trkpt>
      <trkpt lat="62.67309" lon="6.67507">
        <ele>57.441781</ele>
        <time>2020-08-01T13:51:27.535Z</time>
      </trkpt>
      <trkpt lat="62.67271" lon="6.6788">
        <ele>75.951624</ele>
        <time>2020-08-01T13:53:56.532Z</time>
      </trkpt>
      <trkpt lat="62.67477" lon="6.67858">
        <ele>80.9789</ele>
        <time>2020-08-01T13:54:46.566Z</time>
      </trkpt>
      <trkpt lat="62.67697" lon="6.67774">
        <ele>80.336561</ele>
        <time>2020-08-01T13:55:33.527Z</time>
      </trkpt>
      <trkpt lat="62.67879" lon="6.67622">
        <ele>84.216699</ele>
        <time>2020-08-01T13:57:09.523Z</time>
      </trkpt>
      <trkpt lat="62.68077" lon="6.67455">
        <ele>83.088532</ele>
        <time>2020-08-01T13:58:06.528Z</time>
      </trkpt>
      <trkpt lat="62.68264" lon="6.67212">
        <ele>82.830253</ele>
        <time>2020-08-01T13:58:59.542Z</time>
      </trkpt>
      <trkpt lat="62.68469" lon="6.67259">
        <ele>86.721527</ele>
        <time>2020-08-01T13:59:57.531Z</time>
      </trkpt>
      <trkpt lat="62.68643" lon="6.67502">
        <ele>84.405647</ele>
        <time>2020-08-01T14:01:00.529Z</time>
      </trkpt>
      <trkpt lat="62.68818" lon="6.67812">
        <ele>82.222667</ele>
        <time>2020-08-01T14:01:53.525Z</time>
      </trkpt>
      <trkpt lat="62.69042" lon="6.67951">
        <ele>80.593996</ele>
        <time>2020-08-01T14:02:46.538Z</time>
      </trkpt>
      <trkpt lat="62.69202" lon="6.68187">
        <ele>79.702318</ele>
        <time>2020-08-01T14:03:36.548Z</time>
      </trkpt>
      <trkpt lat="62.69269" lon="6.68635">
        <ele>76.99695</ele>
        <time>2020-08-01T14:04:26.530Z</time>
      </trkpt>
      <trkpt lat="62.69429" lon="6.68983">
        <ele>69.582224</ele>
        <time>2020-08-01T14:04:55.529Z</time>
      </trkpt>
      <trkpt lat="62.69602" lon="6.69267">
        <ele>63.327834</ele>
        <time>2020-08-01T14:05:18.522Z</time>
      </trkpt>
      <trkpt lat="62.69757" lon="6.69754">
        <ele>53.427712</ele>
        <time>2020-08-01T14:05:48.540Z</time>
      </trkpt>
      <trkpt lat="62.69906" lon="6.69936">
        <ele>49.990201</ele>
        <time>2020-08-01T14:10:39.549Z</time>
      </trkpt>
    </trkseg>
  </trk>
</gpx>